sensor_id;sensor_type;location;lat;lon;timestamp;temperature;humidity
3380;DHT22;1703;51.964;7.642;2023-07-13T00:01:26;19.50;99.90
3380;DHT22;1703;51.964;7.642;2023-07-13T00:03:53;19.50;99.90
3380;DHT22;1703;51.964;7.642;2023-07-13T00:06:22;19.40;99.90
3380;DHT22;1703;51.964;7.642;2023-07-13T00:08:48;19.40;99.90
3380;DHT22;1703;51.964;7.642;2023-07-13T00:11:16;19.40;99.90
3380;DHT22;1703;51.964;7.642;2023-07-13T00:13:43;19.40;99.90
3380;DHT22;1703;51.964;7.642;2023-07-13T00:16:11;19.40;99.90
3380;DHT22;1703;51.964;7.642;2023-07-13T00:18:39;19.40;99.90
3380;DHT22;1703;51.964;7.642;2023-07-13T00:21:06;19.30;99.90
3380;DHT22;1703;51.964;7.642;2023-07-13T00:23:36;19.30;99.90
3380;DHT22;1703;51.964;7.642;2023-07-13T00:26:04;19.30;99.90
3380;DHT22;1703;51.964;7.642;2023-07-13T00:28:32;19.30;99.90
3380;DHT22;1703;51.964;7.642;2023-07-13T00:30:59;19.30;99.90
3380;DHT22;1703;51.964;7.642;2023-07-13T00:33:27;19.30;99.90
3380;DHT22;1703;51.964;7.642;2023-07-13T00:35:54;19.20;99.90
3380;DHT22;1703;51.964;7.642;2023-07-13T00:38:22;19.20;99.90
3380;DHT22;1703;51.964;7.642;2023-07-13T00:40:50;19.20;99.90
3380;DHT22;1703;51.964;7.642;2023-07-13T00:43:19;19.20;99.90
3380;DHT22;1703;51.964;7.642;2023-07-13T00:46:21;19.20;99.90
3380;DHT22;1703;51.964;7.642;2023-07-13T00:48:49;19.20;99.90
3380;DHT22;1703;51.964;7.642;2023-07-13T00:51:20;19.20;99.90
3380;DHT22;1703;51.964;7.642;2023-07-13T00:53:48;19.20;99.90
3380;DHT22;1703;51.964;7.642;2023-07-13T00:56:17;19.20;99.90
3380;DHT22;1703;51.964;7.642;2023-07-13T00:58:44;19.10;99.90
3380;DHT22;1703;51.964;7.642;2023-07-13T01:01:11;19.20;99.90
3380;DHT22;1703;51.964;7.642;2023-07-13T01:03:39;19.20;99.90
3380;DHT22;1703;51.964;7.642;2023-07-13T01:06:07;19.20;99.90
3380;DHT22;1703;51.964;7.642;2023-07-13T01:08:33;19.10;99.90
3380;DHT22;1703;51.964;7.642;2023-07-13T01:11:00;19.10;99.90
3380;DHT22;1703;51.964;7.642;2023-07-13T01:13:28;19.10;99.90
3380;DHT22;1703;51.964;7.642;2023-07-13T01:15:58;19.20;99.90
3380;DHT22;1703;51.964;7.642;2023-07-13T01:18:28;19.10;99.90
3380;DHT22;1703;51.964;7.642;2023-07-13T01:20:58;19.10;99.90
3380;DHT22;1703;51.964;7.642;2023-07-13T01:23:26;19.10;99.90
3380;DHT22;1703;51.964;7.642;2023-07-13T01:25:54;19.10;99.90
3380;DHT22;1703;51.964;7.642;2023-07-13T01:28:23;19.00;99.90
3380;DHT22;1703;51.964;7.642;2023-07-13T01:30:53;19.00;99.90
3380;DHT22;1703;51.964;7.642;2023-07-13T01:33:22;19.00;99.90
3380;DHT22;1703;51.964;7.642;2023-07-13T01:35:49;18.90;99.90
3380;DHT22;1703;51.964;7.642;2023-07-13T01:38:21;18.90;99.90
3380;DHT22;1703;51.964;7.642;2023-07-13T01:40:49;18.90;99.90
3380;DHT22;1703;51.964;7.642;2023-07-13T01:43:16;18.80;99.90
3380;DHT22;1703;51.964;7.642;2023-07-13T01:45:44;18.80;99.90
3380;DHT22;1703;51.964;7.642;2023-07-13T01:48:11;18.80;99.90
3380;DHT22;1703;51.964;7.642;2023-07-13T01:50:38;18.80;99.90
3380;DHT22;1703;51.964;7.642;2023-07-13T01:53:05;18.70;99.90
3380;DHT22;1703;51.964;7.642;2023-07-13T01:55:34;18.80;99.90
3380;DHT22;1703;51.964;7.642;2023-07-13T01:58:02;18.70;99.90
3380;DHT22;1703;51.964;7.642;2023-07-13T02:00:29;18.70;99.90
3380;DHT22;1703;51.964;7.642;2023-07-13T02:02:56;18.70;99.90
3380;DHT22;1703;51.964;7.642;2023-07-13T02:05:23;18.70;99.90
3380;DHT22;1703;51.964;7.642;2023-07-13T02:07:50;18.60;99.90
3380;DHT22;1703;51.964;7.642;2023-07-13T02:10:18;18.60;99.90
3380;DHT22;1703;51.964;7.642;2023-07-13T02:12:48;18.60;99.90
3380;DHT22;1703;51.964;7.642;2023-07-13T02:15:16;18.60;99.90
3380;DHT22;1703;51.964;7.642;2023-07-13T02:17:43;18.60;99.90
3380;DHT22;1703;51.964;7.642;2023-07-13T02:20:10;18.60;99.90
3380;DHT22;1703;51.964;7.642;2023-07-13T02:22:37;18.60;99.90
3380;DHT22;1703;51.964;7.642;2023-07-13T02:25:04;18.60;99.90
3380;DHT22;1703;51.964;7.642;2023-07-13T02:27:31;18.60;99.90
3380;DHT22;1703;51.964;7.642;2023-07-13T02:29:59;18.50;99.90
3380;DHT22;1703;51.964;7.642;2023-07-13T02:32:26;18.50;99.90
3380;DHT22;1703;51.964;7.642;2023-07-13T02:34:53;18.50;99.90
3380;DHT22;1703;51.964;7.642;2023-07-13T02:37:20;18.50;99.90
3380;DHT22;1703;51.964;7.642;2023-07-13T02:39:47;18.50;99.90
3380;DHT22;1703;51.964;7.642;2023-07-13T02:42:14;18.40;99.90
3380;DHT22;1703;51.964;7.642;2023-07-13T02:44:42;18.40;99.90
3380;DHT22;1703;51.964;7.642;2023-07-13T02:47:10;18.40;99.90
3380;DHT22;1703;51.964;7.642;2023-07-13T02:49:38;18.30;99.90
3380;DHT22;1703;51.964;7.642;2023-07-13T02:52:06;18.30;99.90
3380;DHT22;1703;51.964;7.642;2023-07-13T02:54:32;18.30;99.90
3380;DHT22;1703;51.964;7.642;2023-07-13T02:56:59;18.30;99.90
3380;DHT22;1703;51.964;7.642;2023-07-13T02:59:26;18.20;99.90
3380;DHT22;1703;51.964;7.642;2023-07-13T03:01:53;18.20;99.90
3380;DHT22;1703;51.964;7.642;2023-07-13T03:04:21;18.20;99.90
3380;DHT22;1703;51.964;7.642;2023-07-13T03:06:47;18.30;99.90
3380;DHT22;1703;51.964;7.642;2023-07-13T03:09:15;18.20;99.90
3380;DHT22;1703;51.964;7.642;2023-07-13T03:11:47;18.30;99.90
3380;DHT22;1703;51.964;7.642;2023-07-13T03:14:23;18.30;99.90
3380;DHT22;1703;51.964;7.642;2023-07-13T03:16:50;18.20;99.90
3380;DHT22;1703;51.964;7.642;2023-07-13T03:19:18;18.20;99.90
3380;DHT22;1703;51.964;7.642;2023-07-13T03:21:50;18.20;99.90
3380;DHT22;1703;51.964;7.642;2023-07-13T03:24:17;18.10;99.90
3380;DHT22;1703;51.964;7.642;2023-07-13T03:26:44;18.00;99.90
3380;DHT22;1703;51.964;7.642;2023-07-13T03:29:11;18.00;99.90
3380;DHT22;1703;51.964;7.642;2023-07-13T03:31:39;17.90;99.90
3380;DHT22;1703;51.964;7.642;2023-07-13T03:34:06;17.90;99.90
3380;DHT22;1703;51.964;7.642;2023-07-13T03:36:34;17.80;99.90
3380;DHT22;1703;51.964;7.642;2023-07-13T03:39:06;17.70;99.90
3380;DHT22;1703;51.964;7.642;2023-07-13T03:41:42;17.70;99.90
3380;DHT22;1703;51.964;7.642;2023-07-13T03:44:09;17.70;99.90
3380;DHT22;1703;51.964;7.642;2023-07-13T03:46:36;17.70;99.90
3380;DHT22;1703;51.964;7.642;2023-07-13T03:49:04;17.70;99.90
3380;DHT22;1703;51.964;7.642;2023-07-13T03:51:32;17.50;99.90
3380;DHT22;1703;51.964;7.642;2023-07-13T03:54:00;17.50;99.90
3380;DHT22;1703;51.964;7.642;2023-07-13T03:56:30;17.50;99.90
3380;DHT22;1703;51.964;7.642;2023-07-13T03:58:59;17.50;99.90
3380;DHT22;1703;51.964;7.642;2023-07-13T04:01:26;17.50;99.90
3380;DHT22;1703;51.964;7.642;2023-07-13T04:03:53;17.50;99.90
3380;DHT22;1703;51.964;7.642;2023-07-13T04:06:25;17.50;99.90
3380;DHT22;1703;51.964;7.642;2023-07-13T04:08:54;17.50;99.90
3380;DHT22;1703;51.964;7.642;2023-07-13T04:11:23;17.50;99.90
3380;DHT22;1703;51.964;7.642;2023-07-13T04:13:51;17.50;99.90
3380;DHT22;1703;51.964;7.642;2023-07-13T04:16:19;17.50;99.90
3380;DHT22;1703;51.964;7.642;2023-07-13T04:18:46;17.50;99.90
3380;DHT22;1703;51.964;7.642;2023-07-13T04:21:14;17.50;99.90
3380;DHT22;1703;51.964;7.642;2023-07-13T04:23:41;17.50;99.90
3380;DHT22;1703;51.964;7.642;2023-07-13T04:26:08;17.40;99.90
3380;DHT22;1703;51.964;7.642;2023-07-13T04:28:34;17.30;99.90
3380;DHT22;1703;51.964;7.642;2023-07-13T04:31:03;17.30;99.90
3380;DHT22;1703;51.964;7.642;2023-07-13T04:33:30;17.20;99.90
3380;DHT22;1703;51.964;7.642;2023-07-13T04:35:56;17.30;99.90
3380;DHT22;1703;51.964;7.642;2023-07-13T04:38:26;17.30;99.90
3380;DHT22;1703;51.964;7.642;2023-07-13T04:40:55;17.20;99.90
3380;DHT22;1703;51.964;7.642;2023-07-13T04:43:22;17.30;99.90
3380;DHT22;1703;51.964;7.642;2023-07-13T04:45:50;17.30;99.90
3380;DHT22;1703;51.964;7.642;2023-07-13T04:48:18;17.30;99.90
3380;DHT22;1703;51.964;7.642;2023-07-13T04:50:45;17.30;99.90
3380;DHT22;1703;51.964;7.642;2023-07-13T04:53:12;17.30;99.90
3380;DHT22;1703;51.964;7.642;2023-07-13T04:55:39;17.30;99.90
3380;DHT22;1703;51.964;7.642;2023-07-13T04:58:06;17.30;99.90
3380;DHT22;1703;51.964;7.642;2023-07-13T05:00:33;17.30;99.90
3380;DHT22;1703;51.964;7.642;2023-07-13T05:03:00;17.30;99.90
3380;DHT22;1703;51.964;7.642;2023-07-13T05:05:28;17.30;99.90
3380;DHT22;1703;51.964;7.642;2023-07-13T05:07:55;17.20;99.90
3380;DHT22;1703;51.964;7.642;2023-07-13T05:10:22;17.30;99.90
3380;DHT22;1703;51.964;7.642;2023-07-13T05:12:49;17.30;99.90
3380;DHT22;1703;51.964;7.642;2023-07-13T05:15:17;17.30;99.90
3380;DHT22;1703;51.964;7.642;2023-07-13T05:17:46;17.30;99.90
3380;DHT22;1703;51.964;7.642;2023-07-13T05:20:13;17.30;99.90
3380;DHT22;1703;51.964;7.642;2023-07-13T05:22:41;17.40;99.90
3380;DHT22;1703;51.964;7.642;2023-07-13T05:25:08;17.40;99.90
3380;DHT22;1703;51.964;7.642;2023-07-13T05:27:36;17.40;99.90
3380;DHT22;1703;51.964;7.642;2023-07-13T05:30:04;17.50;99.90
3380;DHT22;1703;51.964;7.642;2023-07-13T05:32:31;17.50;99.90
3380;DHT22;1703;51.964;7.642;2023-07-13T05:34:59;17.50;99.90
3380;DHT22;1703;51.964;7.642;2023-07-13T05:37:25;17.60;99.90
3380;DHT22;1703;51.964;7.642;2023-07-13T05:39:54;17.60;99.90
3380;DHT22;1703;51.964;7.642;2023-07-13T05:42:20;17.60;99.90
3380;DHT22;1703;51.964;7.642;2023-07-13T05:44:47;17.70;99.90
3380;DHT22;1703;51.964;7.642;2023-07-13T05:47:14;17.60;99.90
3380;DHT22;1703;51.964;7.642;2023-07-13T05:49:41;17.50;99.90
3380;DHT22;1703;51.964;7.642;2023-07-13T05:52:08;17.50;99.90
3380;DHT22;1703;51.964;7.642;2023-07-13T05:54:35;17.50;99.90
3380;DHT22;1703;51.964;7.642;2023-07-13T05:57:04;17.60;99.90
3380;DHT22;1703;51.964;7.642;2023-07-13T05:59:31;17.60;99.90
3380;DHT22;1703;51.964;7.642;2023-07-13T06:01:57;17.60;99.90
3380;DHT22;1703;51.964;7.642;2023-07-13T06:04:24;17.60;99.90
3380;DHT22;1703;51.964;7.642;2023-07-13T06:06:51;17.50;99.90
3380;DHT22;1703;51.964;7.642;2023-07-13T06:09:18;17.60;99.90
3380;DHT22;1703;51.964;7.642;2023-07-13T06:11:44;17.50;99.90
3380;DHT22;1703;51.964;7.642;2023-07-13T06:14:13;17.50;99.90
3380;DHT22;1703;51.964;7.642;2023-07-13T06:16:40;17.60;99.90
3380;DHT22;1703;51.964;7.642;2023-07-13T06:19:07;17.60;99.90
3380;DHT22;1703;51.964;7.642;2023-07-13T06:21:34;17.70;99.90
3380;DHT22;1703;51.964;7.642;2023-07-13T06:24:01;17.70;99.90
3380;DHT22;1703;51.964;7.642;2023-07-13T06:26:28;17.70;99.90
3380;DHT22;1703;51.964;7.642;2023-07-13T06:28:55;17.70;99.90
3380;DHT22;1703;51.964;7.642;2023-07-13T06:31:23;17.70;99.90
3380;DHT22;1703;51.964;7.642;2023-07-13T06:33:50;17.80;99.90
3380;DHT22;1703;51.964;7.642;2023-07-13T06:36:16;17.80;99.90
3380;DHT22;1703;51.964;7.642;2023-07-13T06:38:43;17.80;99.90
3380;DHT22;1703;51.964;7.642;2023-07-13T06:41:10;17.90;99.90
3380;DHT22;1703;51.964;7.642;2023-07-13T06:43:37;18.10;99.90
3380;DHT22;1703;51.964;7.642;2023-07-13T06:46:03;18.20;99.90
3380;DHT22;1703;51.964;7.642;2023-07-13T06:48:32;18.30;99.90
3380;DHT22;1703;51.964;7.642;2023-07-13T06:50:58;18.30;99.90
3380;DHT22;1703;51.964;7.642;2023-07-13T06:53:25;18.30;99.90
3380;DHT22;1703;51.964;7.642;2023-07-13T06:55:52;18.40;99.90
3380;DHT22;1703;51.964;7.642;2023-07-13T06:58:19;18.40;99.90
3380;DHT22;1703;51.964;7.642;2023-07-13T07:00:46;18.40;99.90
3380;DHT22;1703;51.964;7.642;2023-07-13T07:03:16;18.40;99.90
3380;DHT22;1703;51.964;7.642;2023-07-13T07:05:44;18.50;99.90
3380;DHT22;1703;51.964;7.642;2023-07-13T07:08:11;18.50;99.90
3380;DHT22;1703;51.964;7.642;2023-07-13T07:10:38;18.50;99.90
3380;DHT22;1703;51.964;7.642;2023-07-13T07:13:05;18.60;99.90
3380;DHT22;1703;51.964;7.642;2023-07-13T07:15:31;18.70;99.90
3380;DHT22;1703;51.964;7.642;2023-07-13T07:17:58;18.70;99.90
3380;DHT22;1703;51.964;7.642;2023-07-13T07:20:25;18.80;99.90
3380;DHT22;1703;51.964;7.642;2023-07-13T07:22:53;18.90;99.90
3380;DHT22;1703;51.964;7.642;2023-07-13T07:25:20;18.90;99.90
3380;DHT22;1703;51.964;7.642;2023-07-13T07:27:47;19.00;99.90
3380;DHT22;1703;51.964;7.642;2023-07-13T07:30:14;19.10;99.90
3380;DHT22;1703;51.964;7.642;2023-07-13T07:32:41;19.10;99.90
3380;DHT22;1703;51.964;7.642;2023-07-13T07:35:08;19.30;99.90
3380;DHT22;1703;51.964;7.642;2023-07-13T07:37:35;19.30;99.90
3380;DHT22;1703;51.964;7.642;2023-07-13T07:40:04;19.20;99.90
3380;DHT22;1703;51.964;7.642;2023-07-13T07:42:31;19.20;99.90
3380;DHT22;1703;51.964;7.642;2023-07-13T07:44:58;19.20;99.90
3380;DHT22;1703;51.964;7.642;2023-07-13T07:47:26;19.20;99.90
3380;DHT22;1703;51.964;7.642;2023-07-13T07:49:53;19.20;99.90
3380;DHT22;1703;51.964;7.642;2023-07-13T07:52:19;19.30;99.90
3380;DHT22;1703;51.964;7.642;2023-07-13T07:54:46;19.30;99.90
3380;DHT22;1703;51.964;7.642;2023-07-13T07:57:14;19.30;99.90
3380;DHT22;1703;51.964;7.642;2023-07-13T07:59:41;19.40;99.90
3380;DHT22;1703;51.964;7.642;2023-07-13T08:02:09;19.50;99.90
3380;DHT22;1703;51.964;7.642;2023-07-13T08:04:37;19.40;99.90
3380;DHT22;1703;51.964;7.642;2023-07-13T08:07:04;19.50;99.90
3380;DHT22;1703;51.964;7.642;2023-07-13T08:09:31;19.60;99.90
3380;DHT22;1703;51.964;7.642;2023-07-13T08:11:57;19.70;99.90
3380;DHT22;1703;51.964;7.642;2023-07-13T08:14:26;19.70;99.90
3380;DHT22;1703;51.964;7.642;2023-07-13T08:16:52;19.70;99.90
3380;DHT22;1703;51.964;7.642;2023-07-13T08:19:19;19.80;99.90
3380;DHT22;1703;51.964;7.642;2023-07-13T08:21:46;19.80;99.90
3380;DHT22;1703;51.964;7.642;2023-07-13T08:24:13;19.90;99.90
3380;DHT22;1703;51.964;7.642;2023-07-13T08:26:40;19.90;99.90
3380;DHT22;1703;51.964;7.642;2023-07-13T08:29:07;19.90;99.90
3380;DHT22;1703;51.964;7.642;2023-07-13T08:31:35;19.90;99.90
3380;DHT22;1703;51.964;7.642;2023-07-13T08:34:02;19.80;99.90
3380;DHT22;1703;51.964;7.642;2023-07-13T08:36:29;19.80;99.90
3380;DHT22;1703;51.964;7.642;2023-07-13T08:38:55;19.80;99.90
3380;DHT22;1703;51.964;7.642;2023-07-13T08:41:23;19.80;99.90
3380;DHT22;1703;51.964;7.642;2023-07-13T08:43:52;19.80;99.90
3380;DHT22;1703;51.964;7.642;2023-07-13T08:46:24;19.70;99.90
3380;DHT22;1703;51.964;7.642;2023-07-13T08:48:55;19.80;99.90
3380;DHT22;1703;51.964;7.642;2023-07-13T08:51:34;19.80;99.90
3380;DHT22;1703;51.964;7.642;2023-07-13T08:54:03;19.90;99.90
3380;DHT22;1703;51.964;7.642;2023-07-13T08:56:31;19.90;99.90
3380;DHT22;1703;51.964;7.642;2023-07-13T08:59:01;20.00;99.90
3380;DHT22;1703;51.964;7.642;2023-07-13T09:01:38;20.10;99.90
3380;DHT22;1703;51.964;7.642;2023-07-13T09:04:14;20.10;99.90
3380;DHT22;1703;51.964;7.642;2023-07-13T09:07:01;20.30;99.90
3380;DHT22;1703;51.964;7.642;2023-07-13T09:09:39;20.30;99.90
3380;DHT22;1703;51.964;7.642;2023-07-13T09:12:15;20.40;99.90
3380;DHT22;1703;51.964;7.642;2023-07-13T09:14:47;20.40;99.90
3380;DHT22;1703;51.964;7.642;2023-07-13T09:17:17;20.40;99.90
3380;DHT22;1703;51.964;7.642;2023-07-13T09:19:51;20.40;99.90
3380;DHT22;1703;51.964;7.642;2023-07-13T09:22:20;20.30;99.90
3380;DHT22;1703;51.964;7.642;2023-07-13T09:24:55;20.30;99.90
3380;DHT22;1703;51.964;7.642;2023-07-13T09:27:30;20.30;99.90
3380;DHT22;1703;51.964;7.642;2023-07-13T09:30:11;20.40;99.90
3380;DHT22;1703;51.964;7.642;2023-07-13T09:32:50;20.60;99.90
3380;DHT22;1703;51.964;7.642;2023-07-13T09:35:21;20.90;99.90
3380;DHT22;1703;51.964;7.642;2023-07-13T09:37:49;20.90;99.90
3380;DHT22;1703;51.964;7.642;2023-07-13T09:40:21;20.70;99.90
3380;DHT22;1703;51.964;7.642;2023-07-13T09:42:52;20.70;99.90
3380;DHT22;1703;51.964;7.642;2023-07-13T09:45:27;20.80;99.90
3380;DHT22;1703;51.964;7.642;2023-07-13T09:47:59;20.90;99.90
3380;DHT22;1703;51.964;7.642;2023-07-13T09:50:27;20.90;99.90
3380;DHT22;1703;51.964;7.642;2023-07-13T09:52:54;20.90;99.90
3380;DHT22;1703;51.964;7.642;2023-07-13T09:55:26;20.80;99.90
3380;DHT22;1703;51.964;7.642;2023-07-13T09:57:53;20.80;99.90
3380;DHT22;1703;51.964;7.642;2023-07-13T10:00:25;21.00;99.90
3380;DHT22;1703;51.964;7.642;2023-07-13T10:03:03;21.20;99.90
3380;DHT22;1703;51.964;7.642;2023-07-13T10:05:39;21.20;99.90
3380;DHT22;1703;51.964;7.642;2023-07-13T10:08:09;21.20;99.90
3380;DHT22;1703;51.964;7.642;2023-07-13T10:10:41;21.30;99.90
3380;DHT22;1703;51.964;7.642;2023-07-13T10:13:32;21.40;99.90
3380;DHT22;1703;51.964;7.642;2023-07-13T10:16:00;21.40;99.90
3380;DHT22;1703;51.964;7.642;2023-07-13T10:18:29;21.40;99.90
3380;DHT22;1703;51.964;7.642;2023-07-13T10:21:10;21.40;99.90
3380;DHT22;1703;51.964;7.642;2023-07-13T10:23:37;21.50;99.90
3380;DHT22;1703;51.964;7.642;2023-07-13T10:26:12;21.30;99.90
3380;DHT22;1703;51.964;7.642;2023-07-13T10:28:41;21.20;99.90
3380;DHT22;1703;51.964;7.642;2023-07-13T10:31:12;21.10;99.90
3380;DHT22;1703;51.964;7.642;2023-07-13T10:33:39;21.00;99.90
3380;DHT22;1703;51.964;7.642;2023-07-13T10:36:13;21.00;99.90
3380;DHT22;1703;51.964;7.642;2023-07-13T10:38:42;20.90;99.90
3380;DHT22;1703;51.964;7.642;2023-07-13T10:41:13;21.10;99.90
3380;DHT22;1703;51.964;7.642;2023-07-13T10:43:43;21.20;99.90
3380;DHT22;1703;51.964;7.642;2023-07-13T10:46:14;21.30;99.90
3380;DHT22;1703;51.964;7.642;2023-07-13T10:48:43;21.40;99.90
3380;DHT22;1703;51.964;7.642;2023-07-13T10:51:18;21.70;99.90
3380;DHT22;1703;51.964;7.642;2023-07-13T10:53:47;21.70;99.90
3380;DHT22;1703;51.964;7.642;2023-07-13T10:56:26;21.70;99.90
3380;DHT22;1703;51.964;7.642;2023-07-13T10:59:11;21.70;99.90
3380;DHT22;1703;51.964;7.642;2023-07-13T11:01:48;21.60;99.90
3380;DHT22;1703;51.964;7.642;2023-07-13T11:04:19;21.50;99.90
3380;DHT22;1703;51.964;7.642;2023-07-13T11:06:52;21.60;99.90
3380;DHT22;1703;51.964;7.642;2023-07-13T11:09:36;21.70;99.90
3380;DHT22;1703;51.964;7.642;2023-07-13T11:12:08;21.80;99.90
3380;DHT22;1703;51.964;7.642;2023-07-13T11:15:03;21.80;99.90
3380;DHT22;1703;51.964;7.642;2023-07-13T11:17:37;22.00;99.90
3380;DHT22;1703;51.964;7.642;2023-07-13T11:20:35;22.00;99.90
3380;DHT22;1703;51.964;7.642;2023-07-13T11:23:19;22.10;99.90
3380;DHT22;1703;51.964;7.642;2023-07-13T11:25:47;22.10;99.90
3380;DHT22;1703;51.964;7.642;2023-07-13T11:28:22;22.10;99.90
3380;DHT22;1703;51.964;7.642;2023-07-13T11:31:01;22.10;99.90
3380;DHT22;1703;51.964;7.642;2023-07-13T11:33:44;22.10;99.90
3380;DHT22;1703;51.964;7.642;2023-07-13T11:36:14;22.10;99.90
3380;DHT22;1703;51.964;7.642;2023-07-13T11:38:47;22.10;99.90
3380;DHT22;1703;51.964;7.642;2023-07-13T11:41:18;22.10;99.90
3380;DHT22;1703;51.964;7.642;2023-07-13T11:43:49;22.20;99.90
3380;DHT22;1703;51.964;7.642;2023-07-13T11:46:20;22.20;99.90
3380;DHT22;1703;51.964;7.642;2023-07-13T11:48:49;22.20;99.90
3380;DHT22;1703;51.964;7.642;2023-07-13T11:51:20;22.40;99.90
3380;DHT22;1703;51.964;7.642;2023-07-13T11:53:51;22.60;99.90
3380;DHT22;1703;51.964;7.642;2023-07-13T11:56:18;22.70;99.90
3380;DHT22;1703;51.964;7.642;2023-07-13T11:58:48;22.80;99.90
3380;DHT22;1703;51.964;7.642;2023-07-13T12:01:20;22.90;99.90
3380;DHT22;1703;51.964;7.642;2023-07-13T12:03:48;23.00;99.90
3380;DHT22;1703;51.964;7.642;2023-07-13T12:06:27;22.90;99.90
3380;DHT22;1703;51.964;7.642;2023-07-13T12:09:00;22.90;99.90
3380;DHT22;1703;51.964;7.642;2023-07-13T12:11:29;22.90;99.90
3380;DHT22;1703;51.964;7.642;2023-07-13T12:13:57;23.00;99.90
3380;DHT22;1703;51.964;7.642;2023-07-13T12:16:28;23.10;99.90
3380;DHT22;1703;51.964;7.642;2023-07-13T12:18:56;23.10;99.90
3380;DHT22;1703;51.964;7.642;2023-07-13T12:21:30;23.00;99.90
3380;DHT22;1703;51.964;7.642;2023-07-13T12:23:59;22.90;99.90
3380;DHT22;1703;51.964;7.642;2023-07-13T12:26:28;22.80;99.90
3380;DHT22;1703;51.964;7.642;2023-07-13T12:28:56;22.70;99.90
3380;DHT22;1703;51.964;7.642;2023-07-13T12:31:26;22.50;99.90
3380;DHT22;1703;51.964;7.642;2023-07-13T12:34:00;22.10;99.90
3380;DHT22;1703;51.964;7.642;2023-07-13T12:36:31;21.30;99.90
3380;DHT22;1703;51.964;7.642;2023-07-13T12:39:06;20.50;99.90
3380;DHT22;1703;51.964;7.642;2023-07-13T12:41:37;20.00;99.90
3380;DHT22;1703;51.964;7.642;2023-07-13T12:44:07;19.80;99.90
3380;DHT22;1703;51.964;7.642;2023-07-13T12:46:34;19.60;99.90
3380;DHT22;1703;51.964;7.642;2023-07-13T12:49:06;19.70;99.90
3380;DHT22;1703;51.964;7.642;2023-07-13T12:51:33;19.80;99.90
3380;DHT22;1703;51.964;7.642;2023-07-13T12:54:14;20.10;99.90
3380;DHT22;1703;51.964;7.642;2023-07-13T12:56:42;20.30;99.90
3380;DHT22;1703;51.964;7.642;2023-07-13T12:59:17;20.30;99.90
3380;DHT22;1703;51.964;7.642;2023-07-13T13:01:51;20.30;99.90
3380;DHT22;1703;51.964;7.642;2023-07-13T13:04:19;20.20;99.90
3380;DHT22;1703;51.964;7.642;2023-07-13T13:06:47;19.80;99.90
3380;DHT22;1703;51.964;7.642;2023-07-13T13:09:17;19.30;99.90
3380;DHT22;1703;51.964;7.642;2023-07-13T13:11:45;19.10;99.90
3380;DHT22;1703;51.964;7.642;2023-07-13T13:14:12;19.00;99.90
3380;DHT22;1703;51.964;7.642;2023-07-13T13:16:46;19.00;99.90
3380;DHT22;1703;51.964;7.642;2023-07-13T13:19:16;18.90;99.90
3380;DHT22;1703;51.964;7.642;2023-07-13T13:21:45;18.90;99.90
3380;DHT22;1703;51.964;7.642;2023-07-13T13:24:14;19.00;99.90
3380;DHT22;1703;51.964;7.642;2023-07-13T13:26:43;19.10;99.90
3380;DHT22;1703;51.964;7.642;2023-07-13T13:29:15;19.20;99.90
3380;DHT22;1703;51.964;7.642;2023-07-13T13:31:42;19.20;99.90
3380;DHT22;1703;51.964;7.642;2023-07-13T13:34:11;19.20;99.90
3380;DHT22;1703;51.964;7.642;2023-07-13T13:36:39;19.20;99.90
3380;DHT22;1703;51.964;7.642;2023-07-13T13:39:18;19.20;99.90
3380;DHT22;1703;51.964;7.642;2023-07-13T13:41:47;19.10;99.90
3380;DHT22;1703;51.964;7.642;2023-07-13T13:44:15;19.10;99.90
3380;DHT22;1703;51.964;7.642;2023-07-13T13:46:44;19.10;99.90
3380;DHT22;1703;51.964;7.642;2023-07-13T13:49:14;19.10;99.90
3380;DHT22;1703;51.964;7.642;2023-07-13T13:51:41;19.00;99.90
3380;DHT22;1703;51.964;7.642;2023-07-13T13:54:11;19.00;99.90
3380;DHT22;1703;51.964;7.642;2023-07-13T13:56:38;19.00;99.90
3380;DHT22;1703;51.964;7.642;2023-07-13T13:59:06;19.00;99.90
3380;DHT22;1703;51.964;7.642;2023-07-13T14:01:34;19.00;99.90
3380;DHT22;1703;51.964;7.642;2023-07-13T14:04:01;18.90;99.90
3380;DHT22;1703;51.964;7.642;2023-07-13T14:06:28;18.90;99.90
3380;DHT22;1703;51.964;7.642;2023-07-13T14:08:55;18.80;99.90
3380;DHT22;1703;51.964;7.642;2023-07-13T14:11:22;18.80;99.90
3380;DHT22;1703;51.964;7.642;2023-07-13T14:13:52;18.70;99.90
3380;DHT22;1703;51.964;7.642;2023-07-13T14:16:22;18.60;99.90
3380;DHT22;1703;51.964;7.642;2023-07-13T14:18:49;18.50;99.90
3380;DHT22;1703;51.964;7.642;2023-07-13T14:21:18;18.40;99.90
3380;DHT22;1703;51.964;7.642;2023-07-13T14:23:46;18.40;99.90
3380;DHT22;1703;51.964;7.642;2023-07-13T14:26:14;18.30;99.90
3380;DHT22;1703;51.964;7.642;2023-07-13T14:28:44;18.30;99.90
3380;DHT22;1703;51.964;7.642;2023-07-13T14:31:12;18.30;99.90
3380;DHT22;1703;51.964;7.642;2023-07-13T14:33:40;18.40;99.90
3380;DHT22;1703;51.964;7.642;2023-07-13T14:36:27;18.40;99.90
3380;DHT22;1703;51.964;7.642;2023-07-13T14:38:54;18.40;99.90
3380;DHT22;1703;51.964;7.642;2023-07-13T14:41:22;18.50;99.90
3380;DHT22;1703;51.964;7.642;2023-07-13T14:43:49;18.50;99.90
3380;DHT22;1703;51.964;7.642;2023-07-13T14:46:28;18.50;99.90
3380;DHT22;1703;51.964;7.642;2023-07-13T14:49:02;18.60;99.90
3380;DHT22;1703;51.964;7.642;2023-07-13T14:51:30;18.80;99.90
3380;DHT22;1703;51.964;7.642;2023-07-13T14:54:01;18.90;99.90
3380;DHT22;1703;51.964;7.642;2023-07-13T14:56:28;19.00;99.90
3380;DHT22;1703;51.964;7.642;2023-07-13T14:58:55;19.20;99.90
3380;DHT22;1703;51.964;7.642;2023-07-13T15:01:23;19.40;99.90
3380;DHT22;1703;51.964;7.642;2023-07-13T15:03:51;19.40;99.90
3380;DHT22;1703;51.964;7.642;2023-07-13T15:06:20;19.60;99.90
3380;DHT22;1703;51.964;7.642;2023-07-13T15:08:47;19.80;99.90
3380;DHT22;1703;51.964;7.642;2023-07-13T15:11:16;20.00;99.90
3380;DHT22;1703;51.964;7.642;2023-07-13T15:13:43;20.10;99.90
3380;DHT22;1703;51.964;7.642;2023-07-13T15:16:16;20.10;99.90
3380;DHT22;1703;51.964;7.642;2023-07-13T15:18:44;20.10;99.90
3380;DHT22;1703;51.964;7.642;2023-07-13T15:21:14;20.20;99.90
3380;DHT22;1703;51.964;7.642;2023-07-13T15:23:45;20.30;99.90
3380;DHT22;1703;51.964;7.642;2023-07-13T15:26:13;20.50;99.90
3380;DHT22;1703;51.964;7.642;2023-07-13T15:28:41;20.50;99.90
3380;DHT22;1703;51.964;7.642;2023-07-13T15:31:19;20.70;99.90
3380;DHT22;1703;51.964;7.642;2023-07-13T15:33:47;20.90;99.90
3380;DHT22;1703;51.964;7.642;2023-07-13T15:36:15;20.80;99.90
3380;DHT22;1703;51.964;7.642;2023-07-13T15:38:43;20.80;99.90
3380;DHT22;1703;51.964;7.642;2023-07-13T15:41:16;20.80;99.90
3380;DHT22;1703;51.964;7.642;2023-07-13T15:43:44;20.80;99.90
3380;DHT22;1703;51.964;7.642;2023-07-13T15:46:11;20.90;99.90
3380;DHT22;1703;51.964;7.642;2023-07-13T15:48:38;21.00;99.90
3380;DHT22;1703;51.964;7.642;2023-07-13T15:51:08;21.00;99.90
3380;DHT22;1703;51.964;7.642;2023-07-13T15:53:39;21.00;99.90
3380;DHT22;1703;51.964;7.642;2023-07-13T15:56:21;21.00;99.90
3380;DHT22;1703;51.964;7.642;2023-07-13T15:58:48;21.10;99.90
3380;DHT22;1703;51.964;7.642;2023-07-13T16:01:16;21.10;99.90
3380;DHT22;1703;51.964;7.642;2023-07-13T16:03:45;21.00;99.90
3380;DHT22;1703;51.964;7.642;2023-07-13T16:06:14;21.10;99.90
3380;DHT22;1703;51.964;7.642;2023-07-13T16:08:43;21.10;99.90
3380;DHT22;1703;51.964;7.642;2023-07-13T16:11:18;21.10;99.90
3380;DHT22;1703;51.964;7.642;2023-07-13T16:13:47;21.00;99.90
3380;DHT22;1703;51.964;7.642;2023-07-13T16:16:17;21.00;99.90